createdAt,value
2023-01-31T00:01:48.439Z,100.00
2023-01-31T00:04:15.446Z,100.00
2023-01-31T00:06:51.011Z,100.00
2023-01-31T00:09:18.195Z,100.00
2023-01-31T00:11:45.798Z,100.00
2023-01-31T00:14:19.209Z,100.00
2023-01-31T00:16:47.004Z,100.00
2023-01-31T00:19:14.379Z,100.00
2023-01-31T00:21:43.799Z,100.00
2023-01-31T00:24:13.950Z,100.00
2023-01-31T00:26:41.797Z,100.00
2023-01-31T00:29:09.395Z,100.00
2023-01-31T00:31:37.921Z,100.00
2023-01-31T00:34:05.681Z,100.00
2023-01-31T00:36:35.117Z,100.00
2023-01-31T00:39:04.515Z,100.00
2023-01-31T00:41:31.886Z,100.00
2023-01-31T00:44:00.229Z,100.00
2023-01-31T00:46:27.865Z,100.00
2023-01-31T00:48:56.374Z,100.00
2023-01-31T00:51:26.654Z,99.74
2023-01-31T00:53:54.863Z,99.97
2023-01-31T00:56:24.381Z,100.00
2023-01-31T00:58:52.442Z,100.00
2023-01-31T01:01:22.953Z,99.87
2023-01-31T01:03:51.731Z,100.00
2023-01-31T01:06:20.056Z,100.00
2023-01-31T01:08:48.190Z,100.00
2023-01-31T01:11:23.155Z,100.00
2023-01-31T01:13:50.927Z,100.00
2023-01-31T01:16:23.507Z,100.00
2023-01-31T01:18:51.030Z,100.00
2023-01-31T01:21:21.071Z,99.80
2023-01-31T01:23:48.813Z,99.91
2023-01-31T01:26:21.777Z,99.85
2023-01-31T01:28:50.491Z,99.98
2023-01-31T01:31:19.802Z,99.71
2023-01-31T01:33:48.900Z,99.63
2023-01-31T01:36:21.779Z,99.99
2023-01-31T01:38:49.368Z,100.00
2023-01-31T01:41:17.968Z,100.00
2023-01-31T01:43:47.163Z,100.00
2023-01-31T01:46:26.447Z,100.00
2023-01-31T01:49:00.355Z,100.00
2023-01-31T01:51:30.029Z,100.00
2023-01-31T01:54:03.349Z,100.00
2023-01-31T01:56:37.751Z,100.00
2023-01-31T01:59:13.236Z,100.00
2023-01-31T02:01:41.203Z,100.00
2023-01-31T02:04:15.244Z,100.00
2023-01-31T02:06:45.229Z,100.00
2023-01-31T02:09:21.686Z,100.00
2023-01-31T02:11:49.625Z,100.00
2023-01-31T02:14:17.999Z,100.00
2023-01-31T02:16:45.317Z,100.00
2023-01-31T02:19:30.242Z,100.00
2023-01-31T02:22:26.350Z,100.00
2023-01-31T02:25:31.100Z,100.00
2023-01-31T02:28:10.478Z,100.00
2023-01-31T02:30:46.794Z,100.00
2023-01-31T02:33:17.799Z,100.00
2023-01-31T02:35:47.910Z,100.00
2023-01-31T02:38:36.858Z,99.25
2023-01-31T02:41:16.816Z,99.76
2023-01-31T02:44:24.924Z,99.95
2023-01-31T02:47:07.824Z,99.09
2023-01-31T02:49:49.291Z,99.41
2023-01-31T02:52:44.358Z,99.06
2023-01-31T02:55:55.099Z,98.95
2023-01-31T02:58:25.038Z,99.03
2023-01-31T03:00:57.060Z,98.72
2023-01-31T03:03:27.794Z,98.82
2023-01-31T03:06:31.533Z,99.37
2023-01-31T03:09:22.111Z,98.71
2023-01-31T03:12:04.151Z,98.71
2023-01-31T03:14:42.667Z,97.76
2023-01-31T03:17:47.293Z,96.96
2023-01-31T03:20:44.220Z,96.24
2023-01-31T03:23:20.298Z,96.45
2023-01-31T03:25:49.654Z,95.98
2023-01-31T03:28:27.085Z,95.28
2023-01-31T03:30:56.922Z,95.05
2023-01-31T03:33:30.219Z,95.69
2023-01-31T03:36:05.619Z,95.11
2023-01-31T03:38:37.345Z,94.94
2023-01-31T03:41:32.570Z,94.54
2023-01-31T03:44:19.968Z,94.82
2023-01-31T03:46:52.977Z,95.14
2023-01-31T03:49:24.508Z,95.09
2023-01-31T03:51:57.586Z,94.71
2023-01-31T03:54:32.593Z,93.99
2023-01-31T03:57:09.345Z,94.07
2023-01-31T03:59:40.357Z,94.03
2023-01-31T04:02:11.798Z,94.22
2023-01-31T04:04:45.563Z,93.42
2023-01-31T04:07:12.637Z,93.54
2023-01-31T04:09:41.039Z,93.74
2023-01-31T04:12:14.009Z,92.99
2023-01-31T04:14:42.902Z,92.93
2023-01-31T04:17:09.944Z,93.56
2023-01-31T04:19:37.119Z,93.35
2023-01-31T04:22:04.066Z,92.94
2023-01-31T04:24:31.243Z,92.17
2023-01-31T04:26:58.098Z,92.31
2023-01-31T04:29:25.585Z,92.46
2023-01-31T04:31:52.698Z,92.92
2023-01-31T04:34:20.096Z,92.78
2023-01-31T04:36:47.172Z,92.15
2023-01-31T04:39:15.103Z,91.40
2023-01-31T04:41:42.016Z,91.97
2023-01-31T04:44:09.409Z,91.43
2023-01-31T04:46:36.681Z,90.46
2023-01-31T04:49:04.482Z,90.98
2023-01-31T04:51:31.805Z,90.84
2023-01-31T04:53:59.149Z,90.59
2023-01-31T04:56:26.743Z,90.88
2023-01-31T04:58:54.144Z,90.94
2023-01-31T05:01:21.150Z,90.56
2023-01-31T05:03:48.503Z,91.05
2023-01-31T05:06:16.208Z,90.06
2023-01-31T05:08:43.663Z,90.72
2023-01-31T05:11:10.999Z,90.58
2023-01-31T05:13:38.399Z,90.42
2023-01-31T05:16:10.813Z,89.49
2023-01-31T05:18:39.330Z,89.74
2023-01-31T05:21:07.241Z,89.06
2023-01-31T05:23:34.788Z,88.83
2023-01-31T05:26:02.347Z,88.83
2023-01-31T05:28:29.977Z,88.04
2023-01-31T05:31:04.201Z,88.72
2023-01-31T05:33:34.535Z,88.03
2023-01-31T05:36:02.458Z,88.14
2023-01-31T05:38:30.030Z,89.08
2023-01-31T05:40:56.982Z,89.22
2023-01-31T05:43:24.385Z,89.13
2023-01-31T05:45:52.115Z,89.00
2023-01-31T05:48:20.308Z,88.57
2023-01-31T05:50:50.153Z,87.97
2023-01-31T05:53:18.965Z,88.77
2023-01-31T05:55:46.200Z,88.61
2023-01-31T05:58:13.596Z,88.25
2023-01-31T06:00:40.460Z,88.77
2023-01-31T06:03:08.779Z,88.41
2023-01-31T06:05:36.288Z,88.22
2023-01-31T06:08:03.863Z,88.09
2023-01-31T06:10:30.871Z,88.47
2023-01-31T06:12:58.556Z,88.43
2023-01-31T06:15:25.599Z,87.86
2023-01-31T06:17:52.836Z,88.08
2023-01-31T06:20:19.850Z,88.01
2023-01-31T06:22:47.170Z,88.47
2023-01-31T06:25:14.230Z,88.02
2023-01-31T06:27:41.905Z,88.78
2023-01-31T06:30:09.874Z,88.90
2023-01-31T06:32:37.589Z,88.66
2023-01-31T06:35:04.982Z,88.54
2023-01-31T06:37:32.160Z,88.26
2023-01-31T06:39:59.692Z,88.84
2023-01-31T06:42:27.381Z,89.32
2023-01-31T06:44:54.403Z,89.23
2023-01-31T06:47:21.636Z,89.65
2023-01-31T06:49:48.811Z,89.22
2023-01-31T06:52:16.255Z,89.19
2023-01-31T06:54:43.199Z,89.60
2023-01-31T06:57:10.519Z,89.21
2023-01-31T06:59:37.388Z,89.31
2023-01-31T07:02:04.560Z,89.15
2023-01-31T07:04:31.526Z,89.74
2023-01-31T07:06:58.820Z,89.65
2023-01-31T07:09:25.991Z,89.55
2023-01-31T07:11:53.566Z,89.21
2023-01-31T07:14:20.588Z,88.80
2023-01-31T07:16:47.807Z,88.64
2023-01-31T07:19:14.728Z,88.17
2023-01-31T07:21:42.330Z,88.71
2023-01-31T07:24:09.555Z,87.41
2023-01-31T07:26:36.732Z,88.06
2023-01-31T07:29:03.677Z,88.91
2023-01-31T07:31:31.194Z,87.70
2023-01-31T07:33:58.181Z,87.53
2023-01-31T07:36:26.745Z,86.96
2023-01-31T07:38:56.074Z,86.73
2023-01-31T07:41:26.603Z,87.07
2023-01-31T07:43:53.562Z,86.10
2023-01-31T07:46:21.004Z,86.49
2023-01-31T07:48:48.272Z,85.04
2023-01-31T07:51:15.685Z,86.15
2023-01-31T07:53:43.351Z,85.78
2023-01-31T07:56:10.906Z,86.50
2023-01-31T07:58:42.635Z,84.64
2023-01-31T08:01:50.619Z,83.74
2023-01-31T08:04:22.018Z,83.68
2023-01-31T08:06:53.612Z,83.99
2023-01-31T08:09:21.273Z,83.70
2023-01-31T08:11:49.168Z,83.80
2023-01-31T08:14:16.072Z,82.51
2023-01-31T08:16:43.448Z,83.00
2023-01-31T08:19:10.724Z,83.15
2023-01-31T08:21:38.146Z,82.28
2023-01-31T08:24:05.361Z,82.61
2023-01-31T08:26:32.863Z,82.47
2023-01-31T08:29:00.231Z,81.78
2023-01-31T08:31:28.507Z,81.20
2023-01-31T08:33:57.330Z,80.90
2023-01-31T08:36:32.047Z,80.55
2023-01-31T08:38:59.964Z,81.11
2023-01-31T08:41:29.288Z,79.99
2023-01-31T08:43:58.963Z,79.89
2023-01-31T08:46:32.359Z,80.79
2023-01-31T08:49:05.111Z,79.92
2023-01-31T08:51:32.579Z,80.83
2023-01-31T08:53:59.546Z,80.27
2023-01-31T08:56:28.000Z,80.44
2023-01-31T08:58:55.285Z,80.01
2023-01-31T09:01:22.970Z,80.24
2023-01-31T09:03:50.766Z,79.62
2023-01-31T09:06:21.902Z,78.97
2023-01-31T09:08:49.082Z,78.95
2023-01-31T09:11:19.307Z,79.39
2023-01-31T09:13:49.649Z,79.17
2023-01-31T09:16:17.685Z,79.06
2023-01-31T09:18:44.687Z,78.06
2023-01-31T09:21:13.144Z,78.30
2023-01-31T09:23:42.674Z,78.26
2023-01-31T09:26:11.965Z,78.27
2023-01-31T09:28:42.286Z,78.97
2023-01-31T09:31:12.401Z,78.13
2023-01-31T09:33:39.404Z,77.70
2023-01-31T09:36:15.791Z,77.29
2023-01-31T09:38:43.148Z,78.72
2023-01-31T09:41:33.438Z,78.41
2023-01-31T09:44:18.527Z,78.80
2023-01-31T09:47:09.359Z,77.76
2023-01-31T09:50:00.656Z,78.07
2023-01-31T09:52:30.836Z,76.72
2023-01-31T09:54:58.171Z,76.92
2023-01-31T09:58:10.499Z,76.27
2023-01-31T10:00:46.546Z,76.48
2023-01-31T10:03:45.407Z,76.65
2023-01-31T10:06:21.240Z,76.12
2023-01-31T10:09:00.323Z,76.06
2023-01-31T10:11:47.335Z,76.90
2023-01-31T10:14:32.860Z,74.56
2023-01-31T10:17:32.970Z,75.28
2023-01-31T10:20:07.723Z,74.46
2023-01-31T10:22:40.791Z,73.62
2023-01-31T10:25:27.050Z,73.19
2023-01-31T10:28:14.274Z,73.06
2023-01-31T10:30:55.502Z,73.04
2023-01-31T10:33:47.911Z,73.77
2023-01-31T10:36:21.199Z,73.99
2023-01-31T10:39:14.351Z,72.19
2023-01-31T10:42:00.372Z,73.30
2023-01-31T10:44:46.101Z,73.86
2023-01-31T10:47:16.174Z,74.14
2023-01-31T10:49:49.365Z,73.16
2023-01-31T10:52:16.706Z,71.98
2023-01-31T10:54:55.490Z,72.35
2023-01-31T10:57:22.928Z,71.81
2023-01-31T10:59:51.579Z,72.19
2023-01-31T11:02:28.569Z,70.48
2023-01-31T11:04:58.916Z,70.17
2023-01-31T11:07:30.976Z,69.92
2023-01-31T11:09:58.680Z,68.99
2023-01-31T11:12:52.888Z,69.93
2023-01-31T11:15:23.323Z,69.05
2023-01-31T11:17:51.261Z,68.48
2023-01-31T11:20:34.216Z,67.64
2023-01-31T11:23:03.260Z,67.71
2023-01-31T11:25:33.616Z,68.50
2023-01-31T11:28:18.287Z,67.14
2023-01-31T11:30:50.003Z,67.79
2023-01-31T11:33:48.139Z,67.39
2023-01-31T11:36:17.516Z,67.60
2023-01-31T11:38:44.725Z,68.60
2023-01-31T11:41:30.353Z,69.98
2023-01-31T11:44:18.900Z,69.70
2023-01-31T11:46:55.892Z,70.75
2023-01-31T11:49:23.115Z,69.83
2023-01-31T11:51:51.158Z,69.49
2023-01-31T11:54:22.040Z,70.59
2023-01-31T11:56:49.616Z,70.83
2023-01-31T11:59:22.992Z,70.34
2023-01-31T12:01:52.700Z,69.81
2023-01-31T12:04:35.155Z,70.39
2023-01-31T12:07:05.216Z,70.22
2023-01-31T12:09:44.052Z,70.30
2023-01-31T12:12:36.162Z,70.33
2023-01-31T12:15:15.425Z,70.28
2023-01-31T12:17:49.601Z,70.36
2023-01-31T12:20:27.990Z,70.21
2023-01-31T12:23:03.314Z,70.56
2023-01-31T12:25:33.488Z,69.80
2023-01-31T12:28:42.797Z,70.15
2023-01-31T12:31:16.065Z,68.21
2023-01-31T12:34:07.995Z,67.78
2023-01-31T12:36:53.836Z,68.29
2023-01-31T12:39:39.629Z,69.16
2023-01-31T12:42:25.046Z,68.88
2023-01-31T12:44:58.293Z,68.45
2023-01-31T12:47:59.045Z,68.44
2023-01-31T12:50:31.582Z,68.84
2023-01-31T12:53:24.828Z,68.73
2023-01-31T12:56:25.516Z,67.69
2023-01-31T12:59:25.413Z,67.86
2023-01-31T13:02:02.623Z,67.68
2023-01-31T13:04:51.904Z,67.53
2023-01-31T13:07:28.108Z,68.29
2023-01-31T13:09:59.221Z,67.12
2023-01-31T13:12:30.144Z,66.68
2023-01-31T13:15:15.597Z,67.06
2023-01-31T13:17:44.727Z,66.88
2023-01-31T13:20:11.817Z,66.92
2023-01-31T13:22:58.018Z,67.03
2023-01-31T13:25:28.354Z,66.13
2023-01-31T13:28:20.016Z,66.22
2023-01-31T13:31:03.798Z,66.81
2023-01-31T13:33:53.702Z,66.28
2023-01-31T13:36:45.364Z,66.45
2023-01-31T13:39:21.760Z,65.74
2023-01-31T13:41:49.020Z,66.14
2023-01-31T13:44:17.593Z,66.19
2023-01-31T13:46:52.572Z,64.53
2023-01-31T13:49:35.217Z,64.58
2023-01-31T13:52:11.448Z,65.00
2023-01-31T13:54:38.304Z,64.93
2023-01-31T13:57:06.695Z,64.01
2023-01-31T13:59:37.873Z,65.04
2023-01-31T14:02:06.472Z,64.64
2023-01-31T14:04:38.399Z,64.21
2023-01-31T14:07:07.197Z,65.39
2023-01-31T14:09:42.888Z,66.06
2023-01-31T14:12:10.066Z,65.69
2023-01-31T14:14:45.003Z,66.48
2023-01-31T14:17:21.332Z,66.77
2023-01-31T14:19:49.319Z,66.96
2023-01-31T14:22:20.749Z,67.34
2023-01-31T14:24:48.539Z,67.83
2023-01-31T14:27:26.763Z,68.11
2023-01-31T14:30:05.953Z,67.89
2023-01-31T14:32:47.092Z,67.43
2023-01-31T14:35:14.120Z,68.01
2023-01-31T14:38:01.987Z,67.96
2023-01-31T14:41:01.310Z,68.66
2023-01-31T14:43:41.794Z,69.21
2023-01-31T14:46:11.907Z,68.98
2023-01-31T14:49:06.021Z,69.72
2023-01-31T14:51:53.544Z,70.01
2023-01-31T14:54:35.901Z,69.51
2023-01-31T14:57:18.098Z,69.64
2023-01-31T15:00:00.399Z,68.89
2023-01-31T15:02:33.362Z,69.90
2023-01-31T15:05:03.486Z,70.64
2023-01-31T15:07:30.732Z,70.84
2023-01-31T15:09:58.227Z,70.72
2023-01-31T15:12:59.945Z,71.03
2023-01-31T15:15:38.577Z,71.46
2023-01-31T15:18:19.443Z,71.98
2023-01-31T15:20:51.497Z,72.87
2023-01-31T15:23:22.714Z,73.39
2023-01-31T15:25:51.080Z,73.47
2023-01-31T15:28:25.386Z,73.13
2023-01-31T15:30:54.927Z,73.68
2023-01-31T15:33:32.465Z,74.39
2023-01-31T15:36:30.205Z,74.33
2023-01-31T15:39:18.632Z,74.29
2023-01-31T15:41:46.341Z,73.85
2023-01-31T15:44:26.648Z,74.43
2023-01-31T15:46:57.120Z,74.81
2023-01-31T15:49:41.027Z,74.88
2023-01-31T15:52:09.134Z,74.68
2023-01-31T15:54:36.356Z,75.25
2023-01-31T15:57:05.801Z,75.92
2023-01-31T15:59:34.087Z,75.87
2023-01-31T16:02:03.250Z,76.22
2023-01-31T16:04:30.485Z,75.90
2023-01-31T16:06:58.950Z,76.23
2023-01-31T16:09:33.766Z,75.63
2023-01-31T16:12:02.607Z,75.70
2023-01-31T16:14:30.235Z,75.90
2023-01-31T16:16:58.473Z,76.69
2023-01-31T16:19:32.270Z,76.92
2023-01-31T16:21:59.947Z,76.45
2023-01-31T16:24:27.487Z,76.87
2023-01-31T16:26:59.736Z,76.98
2023-01-31T16:29:56.340Z,77.12
2023-01-31T16:32:26.396Z,77.70
2023-01-31T16:35:02.661Z,78.26
2023-01-31T16:37:43.679Z,78.22
2023-01-31T16:40:28.804Z,78.67
2023-01-31T16:43:21.792Z,78.09
2023-01-31T16:46:01.605Z,78.63
2023-01-31T16:48:32.488Z,78.25
2023-01-31T16:51:20.898Z,78.32
2023-01-31T16:54:16.525Z,78.63
2023-01-31T16:56:47.874Z,78.23
2023-01-31T16:59:33.656Z,78.06
2023-01-31T17:02:09.271Z,78.29
2023-01-31T17:04:41.512Z,78.46
2023-01-31T17:07:18.689Z,78.20
2023-01-31T17:09:47.479Z,78.00
2023-01-31T17:12:20.949Z,78.33
2023-01-31T17:14:48.930Z,77.73
2023-01-31T17:17:21.624Z,78.31
2023-01-31T17:19:49.247Z,78.35
2023-01-31T17:22:16.199Z,78.83
2023-01-31T17:24:43.522Z,78.86
2023-01-31T17:27:15.757Z,78.61
2023-01-31T17:29:45.736Z,78.38
2023-01-31T17:32:15.253Z,78.76
2023-01-31T17:34:45.786Z,79.05
2023-01-31T17:37:16.091Z,78.98
2023-01-31T17:39:43.662Z,79.23
2023-01-31T17:42:20.819Z,79.48
2023-01-31T17:44:48.312Z,78.79
2023-01-31T17:47:15.981Z,79.02
2023-01-31T17:49:45.806Z,78.96
2023-01-31T17:52:13.243Z,78.62
2023-01-31T17:54:40.458Z,79.49
2023-01-31T17:57:07.418Z,79.81
2023-01-31T17:59:34.616Z,79.23
2023-01-31T18:02:03.186Z,79.84
2023-01-31T18:04:30.960Z,80.20
2023-01-31T18:06:57.909Z,80.37
2023-01-31T18:09:26.572Z,80.73
2023-01-31T18:11:53.651Z,80.87
2023-01-31T18:14:21.107Z,80.53
2023-01-31T18:16:51.192Z,80.94
2023-01-31T18:19:18.966Z,81.34
2023-01-31T18:21:55.077Z,81.42
2023-01-31T18:24:23.807Z,82.10
2023-01-31T18:26:51.347Z,82.28
2023-01-31T18:29:25.432Z,82.55
2023-01-31T18:31:57.688Z,82.15
2023-01-31T18:34:25.508Z,82.54
2023-01-31T18:36:52.900Z,82.48
2023-01-31T18:39:20.321Z,82.89
2023-01-31T18:41:47.258Z,82.63
2023-01-31T18:44:14.480Z,83.02
2023-01-31T18:46:41.674Z,83.73
2023-01-31T18:49:08.990Z,83.47
2023-01-31T18:51:35.908Z,84.29
2023-01-31T18:54:03.455Z,84.46
2023-01-31T18:56:30.718Z,85.65
2023-01-31T18:58:59.014Z,85.99
2023-01-31T19:01:28.801Z,87.18
2023-01-31T19:03:58.327Z,87.96
2023-01-31T19:06:28.531Z,89.12
2023-01-31T19:08:57.654Z,89.47
2023-01-31T19:11:27.525Z,89.10
2023-01-31T19:13:55.046Z,90.18
2023-01-31T19:16:27.951Z,90.86
2023-01-31T19:18:56.451Z,91.69
2023-01-31T19:21:29.319Z,91.59
2023-01-31T19:23:59.489Z,92.20
2023-01-31T19:26:27.201Z,92.80
2023-01-31T19:28:54.818Z,93.25
2023-01-31T19:31:23.707Z,93.51
2023-01-31T19:33:53.419Z,94.51
2023-01-31T19:36:26.443Z,94.54
2023-01-31T19:38:53.808Z,94.66
2023-01-31T19:41:22.754Z,94.99
2023-01-31T19:43:54.697Z,95.46
2023-01-31T19:46:23.699Z,95.73
2023-01-31T19:48:51.083Z,96.28
2023-01-31T19:51:19.684Z,96.37
2023-01-31T19:53:48.141Z,96.54
2023-01-31T19:56:16.295Z,96.89
2023-01-31T19:58:43.634Z,97.12
2023-01-31T20:01:18.506Z,96.85
2023-01-31T20:03:46.518Z,97.18
2023-01-31T20:06:16.243Z,96.92
2023-01-31T20:08:43.826Z,96.88
2023-01-31T20:11:11.030Z,97.08
2023-01-31T20:13:38.423Z,97.26
2023-01-31T20:16:08.908Z,97.11
2023-01-31T20:18:37.589Z,97.29
2023-01-31T20:21:05.410Z,97.47
2023-01-31T20:23:33.260Z,97.67
2023-01-31T20:26:00.505Z,97.53
2023-01-31T20:28:27.734Z,97.67
2023-01-31T20:30:55.104Z,97.73
2023-01-31T20:33:22.561Z,97.80
2023-01-31T20:35:49.528Z,97.86
2023-01-31T20:38:18.223Z,98.26
2023-01-31T20:40:50.278Z,98.12
2023-01-31T20:43:19.347Z,98.25
2023-01-31T20:45:46.415Z,98.37
2023-01-31T20:48:14.175Z,99.08
2023-01-31T20:50:41.286Z,98.81
2023-01-31T20:53:20.913Z,98.67
2023-01-31T20:55:55.975Z,98.78
2023-01-31T20:58:24.195Z,98.94
2023-01-31T21:00:53.397Z,99.32
2023-01-31T21:03:21.720Z,99.25
2023-01-31T21:05:48.981Z,99.31
2023-01-31T21:08:17.454Z,99.28
2023-01-31T21:10:56.275Z,99.63
2023-01-31T21:13:25.564Z,99.57
2023-01-31T21:15:53.392Z,99.11
2023-01-31T21:18:22.850Z,99.12
2023-01-31T21:20:49.861Z,99.63
2023-01-31T21:23:17.129Z,99.74
2023-01-31T21:25:44.608Z,99.94
2023-01-31T21:28:11.902Z,100.00
2023-01-31T21:30:38.975Z,100.00
2023-01-31T21:33:06.289Z,100.00
2023-01-31T21:35:33.233Z,100.00
2023-01-31T21:38:00.443Z,100.00
2023-01-31T21:40:27.340Z,100.00
2023-01-31T21:42:54.789Z,100.00
2023-01-31T21:45:39.621Z,100.00
2023-01-31T21:48:27.040Z,100.00
2023-01-31T21:50:54.088Z,100.00
2023-01-31T21:53:21.719Z,100.00
2023-01-31T21:55:48.678Z,100.00
2023-01-31T21:58:16.366Z,100.00
2023-01-31T22:00:44.098Z,100.00
2023-01-31T22:03:11.583Z,100.00
2023-01-31T22:05:38.572Z,100.00
2023-01-31T22:08:05.764Z,100.00
2023-01-31T22:10:32.659Z,100.00
2023-01-31T22:12:59.825Z,100.00
2023-01-31T22:15:26.703Z,100.00
2023-01-31T22:17:53.905Z,100.00
2023-01-31T22:20:21.170Z,100.00
2023-01-31T22:22:48.762Z,100.00
2023-01-31T22:25:15.770Z,100.00
2023-01-31T22:27:42.958Z,100.00
2023-01-31T22:30:16.229Z,100.00
2023-01-31T22:32:44.072Z,100.00
2023-01-31T22:35:11.058Z,100.00
2023-01-31T22:37:38.242Z,100.00
2023-01-31T22:40:05.600Z,100.00
2023-01-31T22:42:32.782Z,100.00
2023-01-31T22:44:59.655Z,100.00
2023-01-31T22:47:26.921Z,100.00
2023-01-31T22:49:53.787Z,100.00
2023-01-31T22:52:20.996Z,100.00
2023-01-31T22:54:47.849Z,100.00
2023-01-31T22:57:16.303Z,100.00
2023-01-31T22:59:43.203Z,100.00
2023-01-31T23:02:10.369Z,100.00
2023-01-31T23:04:37.280Z,100.00
2023-01-31T23:07:04.765Z,100.00
2023-01-31T23:09:31.719Z,100.00
2023-01-31T23:11:58.845Z,100.00
2023-01-31T23:14:25.788Z,100.00
2023-01-31T23:17:11.743Z,100.00
2023-01-31T23:19:38.815Z,100.00
2023-01-31T23:22:05.959Z,100.00
2023-01-31T23:24:35.368Z,100.00
2023-01-31T23:27:02.582Z,100.00
2023-01-31T23:29:29.472Z,100.00
2023-01-31T23:31:56.735Z,100.00
2023-01-31T23:34:23.714Z,100.00
2023-01-31T23:36:50.852Z,100.00
2023-01-31T23:39:17.748Z,100.00
2023-01-31T23:41:44.877Z,100.00
2023-01-31T23:44:11.756Z,100.00
2023-01-31T23:46:39.000Z,100.00
2023-01-31T23:49:06.058Z,100.00
2023-01-31T23:51:33.893Z,100.00
2023-01-31T23:54:00.845Z,100.00
2023-01-31T23:56:28.020Z,100.00
2023-01-31T23:58:55.008Z,100.00
